Time;durP1;ratioP1;P1;durP2;ratioP2;P2;SDS_P1;SDS_P2;PMS_P1;PMS_P2;Temp;Humidity;BMP_temperature;BMP_pressure;BME280_temperature;BME280_humidity;BME280_pressure;Samples;Min_cycle;Max_cycle;Signal;HPM_P1;HPM_P2
2023/03/28 00:00:41;;;;;;;11.33;2.80;;;2.40;99.90;;;;;;5010861;28;20076;-82
2023/03/28 00:03:07;;;;;;;9.73;2.80;;;2.30;99.90;;;;;;4957164;28;20042;-82
2023/03/28 00:05:33;;;;;;;11.00;3.03;;;2.30;99.90;;;;;;4985630;28;20074;-82
2023/03/28 00:07:59;;;;;;;13.57;2.90;;;2.30;99.90;;;;;;4975132;28;20125;-82
2023/03/28 00:10:26;;;;;;;9.77;3.10;;;2.30;99.90;;;;;;5005334;28;20107;-82
2023/03/28 00:12:52;;;;;;;10.43;2.77;;;2.30;99.90;;;;;;5009064;28;20498;-82
2023/03/28 00:15:18;;;;;;;9.20;2.77;;;2.30;99.90;;;;;;4986299;28;20048;-82
2023/03/28 00:17:44;;;;;;;12.23;2.83;;;2.30;99.90;;;;;;4978174;28;20132;-82
2023/03/28 00:20:11;;;;;;;11.40;2.93;;;2.20;99.90;;;;;;4998712;28;20033;-82
2023/03/28 00:22:37;;;;;;;10.37;2.53;;;2.20;99.90;;;;;;4976712;28;20078;-82
2023/03/28 00:25:05;;;;;;;11.63;2.80;;;2.20;99.90;;;;;;4993943;28;20073;-82
2023/03/28 00:27:32;;;;;;;11.97;2.73;;;2.20;99.90;;;;;;4975718;28;20039;-82
2023/03/28 00:29:59;;;;;;;14.03;3.10;;;2.10;99.90;;;;;;5005042;28;20046;-82
2023/03/28 00:32:24;;;;;;;12.20;2.93;;;2.10;99.90;;;;;;5008658;28;20081;-82
2023/03/28 00:34:50;;;;;;;12.40;2.90;;;2.10;99.90;;;;;;4993615;28;20076;-82
2023/03/28 00:37:16;;;;;;;11.10;2.50;;;2.10;99.90;;;;;;4982492;28;20034;-83
2023/03/28 00:39:48;;;;;;;10.23;3.03;;;2.10;99.90;;;;;;4986128;28;20049;-82
2023/03/28 00:42:19;;;;;;;11.20;3.37;;;2.00;99.90;;;;;;4994397;28;20050;-82
2023/03/28 00:44:51;;;;;;;16.13;2.87;;;2.00;99.90;;;;;;4990737;28;20048;-83
2023/03/28 00:47:42;;;;;;;8.75;2.80;;;2.00;99.90;;;;;;5008639;28;20057;-83
2023/03/28 00:50:23;;;;;;;9.83;3.00;;;2.00;99.90;;;;;;4984095;28;20043;-83
2023/03/28 00:52:52;;;;;;;11.77;2.40;;;1.90;99.90;;;;;;4995636;28;20046;-82
2023/03/28 00:55:25;;;;;;;11.80;2.93;;;1.90;99.90;;;;;;4984643;28;20386;-83
2023/03/28 00:57:51;;;;;;;;;;;1.90;99.90;;;;;;5004064;28;20069;-82
2023/03/28 01:00:21;;;;;;;10.73;3.37;;;1.80;99.90;;;;;;4982697;28;19994;-82
2023/03/28 01:02:51;;;;;;;13.03;2.90;;;1.80;99.90;;;;;;5009277;28;20069;-82
2023/03/28 01:05:22;;;;;;;11.77;2.77;;;1.80;99.90;;;;;;4993819;28;20077;-82
2023/03/28 01:07:52;;;;;;;17.10;3.07;;;1.80;99.90;;;;;;5007162;28;20125;-82
2023/03/28 01:10:18;;;;;;;12.67;2.63;;;1.80;99.90;;;;;;4998385;28;20050;-82
2023/03/28 01:12:47;;;;;;;13.20;2.93;;;1.80;99.90;;;;;;5007350;28;20046;-82
2023/03/28 01:15:13;;;;;;;9.70;2.83;;;1.70;99.90;;;;;;4990854;28;20488;-82
2023/03/28 01:17:40;;;;;;;14.63;3.63;;;1.70;99.90;;;;;;5000193;28;20121;-82
2023/03/28 01:20:36;;;;;;;10.37;2.70;;;1.70;99.90;;;;;;4980663;28;20663;-82
2023/03/28 01:23:25;;;;;;;10.93;2.87;;;1.70;99.90;;;;;;4990744;28;20042;-82
2023/03/28 01:25:51;;;;;;;11.40;3.57;;;1.70;99.90;;;;;;5005007;28;20119;-82
2023/03/28 01:28:43;;;;;;;16.80;3.17;;;1.70;99.90;;;;;;5007615;28;20530;-82
2023/03/28 01:31:31;;;;;;;12.05;2.97;;;1.70;99.90;;;;;;5002033;28;20082;-82
2023/03/28 01:34:37;;;;;;;14.13;2.97;;;1.60;99.90;;;;;;5011776;28;20579;-82
2023/03/28 01:37:38;;;;;;;11.43;2.90;;;1.70;99.90;;;;;;5001694;28;20390;-82
2023/03/28 01:40:35;;;;;;;13.30;3.30;;;1.70;99.90;;;;;;5007020;28;20057;-82
2023/03/28 01:43:25;;;;;;;13.43;3.47;;;1.60;99.90;;;;;;5001263;28;20466;-82
2023/03/28 01:45:59;;;;;;;16.07;3.10;;;1.60;99.90;;;;;;5013042;28;20124;-82
2023/03/28 01:49:02;;;;;;;15.03;3.20;;;1.60;99.90;;;;;;5011317;28;20389;-82
2023/03/28 01:51:40;;;;;;;11.47;2.77;;;1.60;99.90;;;;;;5004139;28;20108;-82
2023/03/28 01:54:43;;;;;;;10.97;3.20;;;1.60;99.90;;;;;;4994769;28;20041;-82
2023/03/28 01:57:16;;;;;;;14.70;2.93;;;1.60;99.90;;;;;;4986241;28;20121;-82
2023/03/28 02:00:11;;;;;;;11.57;3.30;;;1.60;99.90;;;;;;5009718;28;20101;-82
2023/03/28 02:02:48;;;;;;;9.37;2.73;;;1.60;99.90;;;;;;4991248;28;20111;-82
2023/03/28 02:05:18;;;;;;;13.47;2.87;;;1.50;99.90;;;;;;4998659;28;20069;-82
2023/03/28 02:07:45;;;;;;;7.10;2.40;;;1.50;99.90;;;;;;4989954;28;20034;-82
2023/03/28 02:10:14;;;;;;;9.80;3.00;;;1.50;99.90;;;;;;5009108;28;20041;-82
2023/03/28 02:12:47;;;;;;;12.60;3.47;;;1.40;99.90;;;;;;4993301;28;20042;-82
2023/03/28 02:15:16;;;;;;;11.33;2.77;;;1.40;99.90;;;;;;5005970;28;20045;-82
2023/03/28 02:17:51;;;;;;;11.07;2.77;;;1.30;99.90;;;;;;4992523;28;20042;-82
2023/03/28 02:20:19;;;;;;;12.53;3.03;;;1.30;99.90;;;;;;5001347;28;20240;-82
2023/03/28 02:22:48;;;;;;;17.23;3.53;;;1.30;99.90;;;;;;4988195;28;20117;-82
2023/03/28 02:25:14;;;;;;;14.27;3.17;;;1.30;99.90;;;;;;5000024;28;20559;-82
2023/03/28 02:27:43;;;;;;;20.13;4.07;;;1.30;99.90;;;;;;5006096;28;20127;-82
2023/03/28 02:30:10;;;;;;;13.83;3.00;;;1.30;99.90;;;;;;4998345;28;20054;-82
2023/03/28 02:32:36;;;;;;;12.90;3.13;;;1.30;99.90;;;;;;4990228;28;20048;-82
2023/03/28 02:35:04;;;;;;;11.57;2.50;;;1.30;99.90;;;;;;5007347;28;20042;-82
2023/03/28 02:37:50;;;;;;;12.23;2.93;;;1.40;99.90;;;;;;5007965;28;20109;-82
2023/03/28 02:40:58;;;;;;;14.90;3.03;;;1.40;99.90;;;;;;4983642;28;20054;-82
2023/03/28 02:43:56;;;;;;;14.77;3.80;;;1.30;99.90;;;;;;4999184;28;20042;-82
2023/03/28 02:46:30;;;;;;;13.93;2.50;;;1.30;99.90;;;;;;4944970;28;20509;-82
2023/03/28 02:49:11;;;;;;;10.70;2.40;;;1.30;99.90;;;;;;5023553;28;20049;-82
2023/03/28 02:51:55;;;;;;;18.03;3.37;;;1.30;99.90;;;;;;5011336;28;20069;-82
2023/03/28 02:54:28;;;;;;;12.77;3.13;;;1.30;99.90;;;;;;5000644;28;20045;-82
2023/03/28 02:57:27;;;;;;;14.70;2.80;;;1.30;99.90;;;;;;5000356;28;20097;-82
2023/03/28 02:59:56;;;;;;;13.10;3.07;;;1.30;99.90;;;;;;4939886;28;20533;-82
2023/03/28 03:02:22;;;;;;;17.63;3.10;;;1.30;99.90;;;;;;4986669;28;20037;-82
2023/03/28 03:04:49;;;;;;;10.93;2.80;;;1.30;99.90;;;;;;4998454;28;20034;-82
2023/03/28 03:07:17;;;;;;;16.87;3.33;;;1.30;99.90;;;;;;4998474;28;20041;-83
2023/03/28 03:09:44;;;;;;;12.53;3.17;;;1.30;99.90;;;;;;4985987;28;20081;-82
2023/03/28 03:12:11;;;;;;;15.20;3.07;;;1.30;99.90;;;;;;4987908;28;20038;-82
2023/03/28 03:14:37;;;;;;;12.03;2.87;;;1.30;99.90;;;;;;4991098;28;20109;-82
2023/03/28 03:17:04;;;;;;;11.60;2.67;;;1.40;99.90;;;;;;5011973;28;20855;-83
2023/03/28 03:19:31;;;;;;;9.60;3.00;;;1.40;99.90;;;;;;4983928;28;20058;-82
2023/03/28 03:21:57;;;;;;;12.57;2.90;;;1.40;99.90;;;;;;5012002;28;20374;-82
2023/03/28 03:24:24;;;;;;;13.80;3.40;;;1.40;99.90;;;;;;4983463;28;20034;-82
2023/03/28 03:26:49;;;;;;;16.73;2.90;;;1.40;99.90;;;;;;5010992;28;20048;-82
2023/03/28 03:29:16;;;;;;;13.30;2.53;;;1.40;99.90;;;;;;5002485;28;20038;-82
2023/03/28 03:31:41;;;;;;;8.97;2.70;;;1.30;99.90;;;;;;4990366;28;20030;-82
2023/03/28 03:34:07;;;;;;;9.63;2.77;;;1.40;99.90;;;;;;4981865;28;20034;-82
2023/03/28 03:36:33;;;;;;;10.80;2.50;;;1.30;99.90;;;;;;4994617;28;20040;-82
2023/03/28 03:38:59;;;;;;;11.60;2.77;;;1.30;99.90;;;;;;4995000;28;20069;-82
2023/03/28 03:41:25;;;;;;;13.70;2.70;;;1.20;99.90;;;;;;5009787;28;20053;-83
2023/03/28 03:43:51;;;;;;;9.13;2.37;;;1.20;99.90;;;;;;4992853;28;20172;-82
2023/03/28 03:46:17;;;;;;;14.37;3.07;;;1.10;99.90;;;;;;5008896;28;20137;-82
2023/03/28 03:48:42;;;;;;;16.00;2.90;;;1.10;99.90;;;;;;4994439;28;20097;-82
2023/03/28 03:51:08;;;;;;;15.13;2.83;;;1.10;99.90;;;;;;5011504;28;20046;-83
2023/03/28 03:53:34;;;;;;;13.47;2.23;;;1.10;99.90;;;;;;4994787;28;20405;-83
2023/03/28 03:56:01;;;;;;;10.83;2.93;;;1.10;99.90;;;;;;4999549;28;20042;-82
2023/03/28 03:58:27;;;;;;;8.90;2.63;;;1.00;99.90;;;;;;4984574;28;20038;-82
2023/03/28 04:00:53;;;;;;;9.13;2.30;;;1.00;99.90;;;;;;4975780;28;20757;-82
2023/03/28 04:03:19;;;;;;;15.50;2.67;;;1.00;99.90;;;;;;4950685;28;20074;-82
2023/03/28 04:05:44;;;;;;;10.03;2.87;;;1.00;99.90;;;;;;4989465;28;20030;-82
2023/03/28 04:08:10;;;;;;;8.70;2.87;;;1.00;99.90;;;;;;4970091;28;20071;-82
2023/03/28 04:10:36;;;;;;;12.00;2.33;;;1.00;99.90;;;;;;4997134;28;20124;-82
2023/03/28 04:13:02;;;;;;;9.80;2.60;;;0.90;99.90;;;;;;4985297;28;20041;-82
2023/03/28 04:15:27;;;;;;;13.43;3.00;;;0.90;99.90;;;;;;5004291;28;20039;-82
2023/03/28 04:17:55;;;;;;;17.57;4.17;;;0.90;99.90;;;;;;5004790;28;20057;-82
2023/03/28 04:20:22;;;;;;;10.63;2.83;;;0.90;99.90;;;;;;4989572;28;20746;-82
2023/03/28 04:22:49;;;;;;;13.97;4.43;;;0.80;99.90;;;;;;4990436;28;20382;-82
2023/03/28 04:25:16;;;;;;;12.70;2.93;;;0.90;99.90;;;;;;4984852;28;20056;-82
2023/03/28 04:27:47;;;;;;;12.23;3.00;;;0.80;99.90;;;;;;5008295;28;20053;-82
2023/03/28 04:30:16;;;;;;;8.17;2.30;;;0.80;99.90;;;;;;4982154;28;20125;-82
2023/03/28 04:32:48;;;;;;;8.87;2.53;;;0.80;99.90;;;;;;5001653;28;20038;-82
2023/03/28 04:35:15;;;;;;;9.73;2.40;;;0.70;99.90;;;;;;4987480;28;20053;-82
2023/03/28 04:37:42;;;;;;;11.87;2.67;;;0.70;99.90;;;;;;5005101;28;20450;-82
2023/03/28 04:40:09;;;;;;;8.30;2.43;;;0.70;99.90;;;;;;5004663;28;20133;-83
2023/03/28 04:42:38;;;;;;;16.50;3.10;;;0.70;99.90;;;;;;5007475;28;20035;-82
2023/03/28 04:45:05;;;;;;;10.50;2.67;;;0.70;99.90;;;;;;4985934;28;20092;-82
2023/03/28 04:47:31;;;;;;;10.73;2.47;;;0.70;99.90;;;;;;4991743;28;20038;-82
2023/03/28 04:49:57;;;;;;;11.90;2.70;;;0.70;99.90;;;;;;5007370;28;20074;-82
2023/03/28 04:52:23;;;;;;;11.47;2.60;;;0.70;99.90;;;;;;5009414;28;20073;-82
2023/03/28 04:54:50;;;;;;;10.87;2.80;;;0.70;99.90;;;;;;4975885;28;20700;-83
2023/03/28 04:57:16;;;;;;;8.67;2.70;;;0.60;99.90;;;;;;4987376;28;20045;-83
2023/03/28 04:59:42;;;;;;;8.53;2.40;;;0.60;99.90;;;;;;4962602;28;20042;-82
2023/03/28 05:02:08;;;;;;;12.70;3.10;;;0.60;99.90;;;;;;4983309;28;20108;-82
2023/03/28 05:04:33;;;;;;;12.17;2.63;;;0.60;99.90;;;;;;5002747;28;20514;-82
2023/03/28 05:06:59;;;;;;;14.53;3.10;;;0.70;99.90;;;;;;4990644;28;20038;-82
2023/03/28 05:09:25;;;;;;;12.87;2.90;;;0.70;99.90;;;;;;4988366;28;20495;-81
2023/03/28 05:11:51;;;;;;;12.93;2.80;;;0.60;99.90;;;;;;4976760;28;20068;-82
2023/03/28 05:14:16;;;;;;;16.30;3.10;;;0.60;99.90;;;;;;4986432;28;20115;-82
2023/03/28 05:16:42;;;;;;;11.07;2.83;;;0.60;99.90;;;;;;5005704;28;20121;-82
2023/03/28 05:19:08;;;;;;;11.73;3.03;;;0.60;99.90;;;;;;4993318;28;20695;-82
2023/03/28 05:21:35;;;;;;;10.93;2.63;;;0.60;99.90;;;;;;4990827;28;20046;-82
2023/03/28 05:24:00;;;;;;;7.97;3.10;;;0.60;99.90;;;;;;4988258;28;20092;-82
2023/03/28 05:26:29;;;;;;;11.23;3.03;;;0.60;99.90;;;;;;4986556;28;20433;-82
2023/03/28 05:28:55;;;;;;;9.10;2.70;;;0.60;99.90;;;;;;4993485;28;20423;-83
2023/03/28 05:31:24;;;;;;;11.80;2.87;;;0.60;99.90;;;;;;4992710;28;20099;-82
2023/03/28 05:33:51;;;;;;;13.73;3.57;;;0.60;99.90;;;;;;5013720;28;20085;-82
2023/03/28 05:36:17;;;;;;;9.67;2.60;;;0.60;99.90;;;;;;4996901;28;20045;-83
2023/03/28 05:38:43;;;;;;;12.63;3.07;;;0.60;99.90;;;;;;5000020;28;20513;-82
2023/03/28 05:41:09;;;;;;;14.77;3.23;;;0.60;99.90;;;;;;4999642;28;20071;-83
2023/03/28 05:43:34;;;;;;;15.77;3.07;;;0.60;99.90;;;;;;4989603;28;20029;-83
2023/03/28 05:46:00;;;;;;;13.40;3.20;;;0.70;99.90;;;;;;4995111;28;20044;-82
2023/03/28 05:48:29;;;;;;;13.97;2.80;;;0.70;99.90;;;;;;4999600;28;20106;-83
2023/03/28 05:50:55;;;;;;;11.53;2.70;;;0.70;99.90;;;;;;5013330;28;20033;-83
2023/03/28 05:53:21;;;;;;;15.07;3.17;;;0.70;99.90;;;;;;5015480;28;20046;-83
2023/03/28 05:55:48;;;;;;;10.03;3.33;;;0.80;99.90;;;;;;4981926;28;20046;-82
2023/03/28 05:58:16;;;;;;;11.47;5.03;;;0.80;99.90;;;;;;5008003;28;20527;-82
2023/03/28 06:00:43;;;;;;;15.00;5.57;;;0.80;99.90;;;;;;5013594;28;20075;-82
2023/03/28 06:03:14;;;;;;;10.37;3.50;;;0.90;99.90;;;;;;5002330;28;20091;-83
2023/03/28 06:05:40;;;;;;;9.00;2.73;;;0.90;99.90;;;;;;5001211;28;20077;-81
2023/03/28 06:08:08;;;;;;;10.93;2.80;;;0.90;99.90;;;;;;5004902;28;20034;-83
2023/03/28 06:10:34;;;;;;;13.57;3.00;;;1.00;99.90;;;;;;5012781;28;20041;-83
2023/03/28 06:13:00;;;;;;;9.30;2.60;;;1.00;99.90;;;;;;4977247;28;20104;-82
2023/03/28 06:15:26;;;;;;;8.50;3.17;;;1.10;99.90;;;;;;4994724;28;20037;-83
2023/03/28 06:17:51;;;;;;;10.80;3.53;;;1.10;99.90;;;;;;5016270;28;20045;-83
2023/03/28 06:20:17;;;;;;;16.97;3.13;;;1.10;99.90;;;;;;5009390;28;20041;-83
2023/03/28 06:22:46;;;;;;;12.43;3.47;;;1.20;99.90;;;;;;4994402;28;20052;-83
2023/03/28 06:25:12;;;;;;;13.40;3.50;;;1.20;99.90;;;;;;5006443;28;20464;-83
2023/03/28 06:27:38;;;;;;;7.00;2.70;;;1.30;99.90;;;;;;4991498;28;20048;-83
2023/03/28 06:30:04;;;;;;;9.70;2.80;;;1.30;99.90;;;;;;4999348;28;20125;-82
2023/03/28 06:32:32;;;;;;;9.57;2.90;;;1.40;99.90;;;;;;4987653;28;20559;-83
2023/03/28 06:34:58;;;;;;;13.10;3.10;;;1.50;99.90;;;;;;5004162;28;20037;-82
2023/03/28 06:37:26;;;;;;;12.40;3.43;;;1.60;99.90;;;;;;5016947;28;20536;-83
2023/03/28 06:39:53;;;;;;;16.87;3.03;;;1.60;99.90;;;;;;5013580;28;20050;-82
2023/03/28 06:42:25;;;;;;;12.50;3.03;;;1.80;99.90;;;;;;5005585;28;20125;-82
2023/03/28 06:44:54;;;;;;;9.97;2.63;;;1.80;99.90;;;;;;4974866;28;20057;-82
2023/03/28 06:47:32;;;;;;;12.20;3.10;;;1.90;99.90;;;;;;4986647;28;20469;-82
2023/03/28 06:50:01;;;;;;;9.80;3.40;;;2.00;99.90;;;;;;4983724;28;20132;-82
2023/03/28 06:52:30;;;;;;;13.23;3.47;;;2.10;99.90;;;;;;4981916;28;20482;-82
2023/03/28 06:55:02;;;;;;;9.53;3.07;;;2.20;99.90;;;;;;5004898;28;20397;-82
2023/03/28 06:57:30;;;;;;;9.93;2.90;;;2.30;99.90;;;;;;4991863;28;20522;-81
2023/03/28 07:00:06;;;;;;;6.73;2.63;;;2.30;99.90;;;;;;4959687;28;20172;-81
2023/03/28 07:02:35;;;;;;;11.77;3.03;;;2.40;99.90;;;;;;4955320;28;20125;-81
2023/03/28 07:05:00;;;;;;;10.87;2.90;;;2.50;99.90;;;;;;4990337;28;20117;-81
2023/03/28 07:07:30;;;;;;;10.03;2.80;;;2.60;99.90;;;;;;4975991;28;20387;-81
2023/03/28 07:10:00;;;;;;;11.80;2.90;;;2.70;99.90;;;;;;4977537;28;20038;-82
2023/03/28 07:12:30;;;;;;;9.33;2.53;;;2.80;99.90;;;;;;4967268;28;20537;-82
2023/03/28 07:15:03;;;;;;;9.63;2.73;;;2.90;99.90;;;;;;4999039;28;20057;-82
2023/03/28 07:17:47;;;;;;;9.67;2.97;;;3.00;99.90;;;;;;4970131;28;20519;-82
2023/03/28 07:20:34;;;;;;;11.10;2.53;;;3.20;99.90;;;;;;4987491;28;20046;-81
2023/03/28 07:23:12;;;;;;;9.33;2.93;;;3.30;99.90;;;;;;4994797;28;20049;-82
2023/03/28 07:25:55;;;;;;;11.13;2.50;;;3.40;99.90;;;;;;4995796;28;20050;-82
2023/03/28 07:28:29;;;;;;;10.73;2.80;;;3.60;99.90;;;;;;4994138;28;20042;-82
2023/03/28 07:31:19;;;;;;;7.60;3.13;;;3.70;99.90;;;;;;4961610;28;20107;-82
2023/03/28 07:34:27;;;;;;;;;;;;;;;;;;;;;
2023/03/28 07:37:00;;;;;;;6.70;2.57;;;4.00;99.90;;;;;;4984481;28;19921;-82
2023/03/28 07:39:56;;;;;;;;;;;;;;;;;;;;;
2023/03/28 07:42:26;;;;;;;8.10;2.10;;;4.20;99.90;;;;;;4997139;28;20069;-82
2023/03/28 07:45:02;;;;;;;9.53;2.27;;;4.40;99.90;;;;;;4975830;28;20034;-81
2023/03/28 07:47:34;;;;;;;9.67;2.47;;;4.50;99.90;;;;;;4994514;28;20116;-81
2023/03/28 07:50:21;;;;;;;8.07;2.40;;;4.60;99.90;;;;;;4995501;28;20508;-81
2023/03/28 07:52:58;;;;;;;6.53;1.87;;;4.80;99.90;;;;;;4994828;28;20046;-81
2023/03/28 07:55:25;;;;;;;8.73;2.13;;;4.90;99.90;;;;;;4997348;28;20046;-83
2023/03/28 07:57:52;;;;;;;9.77;2.10;;;5.00;99.90;;;;;;5009723;28;20121;-81
2023/03/28 08:00:27;;;;;;;10.50;2.00;;;5.10;99.90;;;;;;4988185;28;20474;-81
2023/03/28 08:03:03;;;;;;;9.87;1.93;;;5.30;99.90;;;;;;4975121;28;20046;-81
2023/03/28 08:05:55;;;;;;;9.13;2.00;;;5.40;99.90;;;;;;4965165;28;20045;-81
2023/03/28 08:08:31;;;;;;;5.40;1.70;;;5.50;99.90;;;;;;4995499;28;20121;-81
2023/03/28 08:10:58;;;;;;;7.50;1.90;;;5.50;99.90;;;;;;4981028;28;20069;-81
2023/03/28 08:13:50;;;;;;;8.77;2.20;;;5.60;99.90;;;;;;4994066;28;20046;-82
2023/03/28 08:16:35;;;;;;;6.03;1.93;;;6.00;99.90;;;;;;4991440;28;20061;-81
2023/03/28 08:19:24;;;;;;;12.30;2.10;;;6.20;99.90;;;;;;4994355;28;20045;-81
2023/03/28 08:21:50;;;;;;;6.47;1.80;;;6.50;99.90;;;;;;4960187;28;20046;-82
2023/03/28 08:24:27;;;;;;;7.90;1.97;;;6.60;99.90;;;;;;4994005;28;20536;-81
2023/03/28 08:26:56;;;;;;;6.70;1.90;;;6.60;99.90;;;;;;4959408;28;20037;-81
2023/03/28 08:29:58;;;;;;;5.27;1.80;;;6.60;99.90;;;;;;4967241;28;20038;-81
2023/03/28 08:32:24;;;;;;;;;;;6.90;99.90;;;;;;4975577;28;20398;-82
2023/03/28 08:34:50;;;;;;;8.23;1.40;;;7.10;99.90;;;;;;4976521;28;19919;-82
2023/03/28 08:37:26;;;;;;;11.73;2.10;;;7.10;99.90;;;;;;4994566;28;20049;-81
2023/03/28 08:39:55;;;;;;;8.43;1.90;;;7.20;99.90;;;;;;4989391;28;20087;-82
2023/03/28 08:42:21;;;;;;;7.33;1.73;;;7.00;99.90;;;;;;4975281;28;20486;-81
2023/03/28 08:45:19;;;;;;;7.90;1.70;;;7.00;99.90;;;;;;4974737;28;20038;-82
2023/03/28 08:48:03;;;;;;;5.40;1.70;;;6.90;99.90;;;;;;4988360;28;20069;-80
2023/03/28 08:50:55;;;;;;;9.33;2.00;;;6.90;99.90;;;;;;5010589;28;20388;-82
2023/03/28 08:53:23;;;;;;;6.43;1.58;;;6.80;99.90;;;;;;4993692;28;20034;-81
2023/03/28 08:56:08;;;;;;;6.70;1.90;;;6.70;99.90;;;;;;4986364;28;20064;-81
2023/03/28 08:58:54;;;;;;;9.73;2.00;;;6.80;99.90;;;;;;4985718;28;20054;-80
2023/03/28 09:01:22;;;;;;;6.23;2.00;;;6.80;99.90;;;;;;4979993;28;20056;-80
2023/03/28 09:03:51;;;;;;;6.57;2.57;;;6.90;99.90;;;;;;5002587;28;20034;-81
2023/03/28 09:06:39;;;;;;;8.67;2.17;;;6.90;99.90;;;;;;4997269;28;20664;-82
2023/03/28 09:09:58;;;;;;;5.50;2.17;;;7.00;99.90;;;;;;4991184;28;20042;-81
2023/03/28 09:12:48;;;;;;;4.07;1.70;;;7.10;99.90;;;;;;4955285;28;20038;-81
2023/03/28 09:15:29;;;;;;;5.87;2.03;;;7.20;99.90;;;;;;5012180;28;20073;-81
2023/03/28 09:18:15;;;;;;;7.37;2.47;;;7.20;99.90;;;;;;4997665;28;20103;-81
2023/03/28 09:21:16;;;;;;;6.83;2.03;;;7.30;99.90;;;;;;4992377;28;20041;-81
2023/03/28 09:24:04;;;;;;;5.30;1.43;;;7.30;99.90;;;;;;4998139;28;20073;-81
2023/03/28 09:27:01;;;;;;;3.63;0.90;;;7.30;99.90;;;;;;4989248;28;20042;-82
2023/03/28 09:29:33;;;;;;;4.13;0.90;;;7.20;99.90;;;;;;4981783;28;20050;-81
2023/03/28 09:32:35;;;;;;;2.40;0.80;;;7.30;99.90;;;;;;4994857;28;20401;-82
2023/03/28 09:35:15;;;;;;;3.13;1.00;;;7.50;99.90;;;;;;4987969;28;20053;-84
2023/03/28 09:37:56;;;;;;;2.13;0.90;;;7.60;99.90;;;;;;4994840;28;20100;-82
2023/03/28 09:40:30;;;;;;;6.03;1.20;;;7.50;99.90;;;;;;4996635;28;20054;-81
2023/03/28 09:43:18;;;;;;;4.37;1.60;;;7.50;99.90;;;;;;4997583;28;20485;-82
2023/03/28 09:46:01;;;;;;;5.10;1.40;;;7.40;99.90;;;;;;4991275;28;20116;-81
2023/03/28 09:48:34;;;;;;;5.27;1.17;;;7.40;99.90;;;;;;4983217;28;20049;-81
2023/03/28 09:51:01;;;;;;;6.10;1.40;;;7.40;99.90;;;;;;4995581;28;20056;-81
2023/03/28 09:53:41;;;;;;;4.03;1.40;;;7.50;99.90;;;;;;4989202;28;20124;-81
2023/03/28 09:56:37;;;;;;;6.57;1.60;;;7.50;99.90;;;;;;5005273;28;20052;-81
2023/03/28 09:59:25;;;;;;;3.77;1.50;;;7.40;99.90;;;;;;4979866;28;20394;-81
2023/03/28 10:02:02;;;;;;;4.03;1.30;;;7.40;99.90;;;;;;4997366;28;20524;-82
2023/03/28 10:04:40;;;;;;;3.27;1.47;;;7.40;99.90;;;;;;4996517;28;20049;-82
2023/03/28 10:07:09;;;;;;;3.77;1.63;;;7.40;99.90;;;;;;4981126;28;20050;-81
2023/03/28 10:10:01;;;;;;;3.97;1.60;;;7.40;99.90;;;;;;5002681;28;20140;-80
2023/03/28 10:12:37;;;;;;;4.28;1.52;;;7.50;99.90;;;;;;4990271;28;20808;-82
2023/03/28 10:15:07;;;;;;;4.27;1.40;;;7.60;99.90;;;;;;5006269;28;20049;-82
2023/03/28 10:18:04;;;;;;;3.53;1.47;;;7.70;99.90;;;;;;4975289;28;20109;-82
2023/03/28 10:20:37;;;;;;;2.47;1.10;;;7.70;99.90;;;;;;4989655;28;20042;-82
2023/03/28 10:23:23;;;;;;;6.30;1.50;;;7.60;99.90;;;;;;4968255;28;20084;-83
2023/03/28 10:25:52;;;;;;;5.57;1.53;;;7.80;99.90;;;;;;4962112;28;20145;-80
2023/03/28 10:28:34;;;;;;;4.30;1.50;;;8.00;99.90;;;;;;5001943;28;20041;-83
2023/03/28 10:31:09;;;;;;;4.30;1.23;;;8.30;99.90;;;;;;4983990;28;20042;-80
2023/03/28 10:33:42;;;;;;;3.53;1.27;;;8.40;99.90;;;;;;4980539;28;20042;-82
2023/03/28 10:36:27;;;;;;;3.27;1.60;;;8.40;99.90;;;;;;4987800;28;20053;-81
2023/03/28 10:38:54;;;;;;;7.53;1.37;;;8.40;99.90;;;;;;4997369;28;20037;-80
2023/03/28 10:41:24;;;;;;;4.57;1.60;;;8.20;99.90;;;;;;4985804;28;20133;-83
2023/03/28 10:43:51;;;;;;;4.13;1.40;;;8.10;99.90;;;;;;5007055;28;20119;-81
2023/03/28 10:46:39;;;;;;;3.57;1.33;;;7.90;99.90;;;;;;4980007;28;20517;-81
2023/03/28 10:49:20;;;;;;;3.40;1.30;;;7.80;99.90;;;;;;4997325;28;20033;-81
2023/03/28 10:51:49;;;;;;;5.20;1.40;;;8.00;99.90;;;;;;4984950;28;20042;-81
2023/03/28 10:54:42;;;;;;;4.53;1.87;;;8.10;99.90;;;;;;4995042;28;20041;-82
2023/03/28 10:57:39;;;;;;;3.90;1.13;;;8.20;99.90;;;;;;5010030;28;20046;-81
2023/03/28 11:00:18;;;;;;;5.30;1.37;;;8.40;99.90;;;;;;4996089;28;20565;-81
2023/03/28 11:03:09;;;;;;;3.50;1.40;;;8.50;99.90;;;;;;4983402;28;20033;-82
2023/03/28 11:06:27;;;;;;;3.10;1.23;;;8.50;99.90;;;;;;4997379;28;20037;-82
2023/03/28 11:09:25;;;;;;;5.40;1.30;;;8.40;99.90;;;;;;4918999;29;20043;-82
2023/03/28 11:12:17;;;;;;;3.53;1.17;;;8.40;99.90;;;;;;5005298;28;20396;-81
2023/03/28 11:15:09;;;;;;;4.20;1.23;;;8.40;99.90;;;;;;4998181;28;20116;-82
2023/03/28 11:18:05;;;;;;;3.42;1.17;;;8.40;99.90;;;;;;4980320;28;20104;-81
2023/03/28 11:20:44;;;;;;;3.40;1.40;;;8.40;99.90;;;;;;4998796;28;20111;-82
2023/03/28 11:23:21;;;;;;;6.90;1.63;;;8.40;99.90;;;;;;4987243;28;20481;-83
2023/03/28 11:26:38;;;;;;;3.50;1.37;;;8.40;99.90;;;;;;4992403;28;20045;-83
2023/03/28 11:29:29;;;;;;;;;;;8.40;99.90;;;;;;4996301;28;20038;-82
2023/03/28 11:32:17;;;;;;;4.57;1.47;;;8.50;99.90;;;;;;5012717;28;19925;-81
2023/03/28 11:35:20;;;;;;;8.07;1.87;;;8.60;99.90;;;;;;4998381;28;20037;-81
2023/03/28 11:38:21;;;;;;;5.03;1.57;;;8.60;99.90;;;;;;4988908;28;20408;-81
2023/03/28 11:41:01;;;;;;;4.40;1.70;;;8.70;99.90;;;;;;4987655;28;20057;-82
2023/03/28 11:44:18;;;;;;;4.93;1.63;;;8.90;99.90;;;;;;5015687;28;20045;-82
2023/03/28 11:47:09;;;;;;;2.80;1.70;;;9.10;99.90;;;;;;5003478;28;20512;-84
2023/03/28 11:49:42;;;;;;;5.03;1.73;;;9.50;99.90;;;;;;4995935;28;20512;-84
2023/03/28 11:52:27;;;;;;;4.10;1.70;;;9.60;99.90;;;;;;4991278;28;20441;-83
2023/03/28 11:55:25;;;;;;;3.07;2.40;;;9.70;99.90;;;;;;4979312;28;20045;-83
2023/03/28 11:58:29;;;;;;;8.10;3.87;;;9.90;99.90;;;;;;4992914;28;20077;-83
2023/03/28 12:01:20;;;;;;;7.00;1.67;;;9.90;99.90;;;;;;4995805;28;20045;-83
2023/03/28 12:04:07;;;;;;;5.30;1.90;;;9.80;99.90;;;;;;4950592;28;20396;-82
2023/03/28 12:06:36;;;;;;;5.50;1.97;;;9.60;99.90;;;;;;4997567;28;20179;-82
2023/03/28 12:09:36;;;;;;;4.32;2.03;;;9.60;99.90;;;;;;4998174;28;20048;-82
2023/03/28 12:12:14;;;;;;;4.10;1.73;;;9.40;99.90;;;;;;4974532;28;20049;-83
2023/03/28 12:14:59;;;;;;;5.13;2.00;;;9.40;99.90;;;;;;4978310;28;20037;-81
2023/03/28 12:17:40;;;;;;;8.83;1.97;;;9.40;99.90;;;;;;4978280;28;20060;-82
2023/03/28 12:20:24;;;;;;;2.83;1.42;;;9.40;99.90;;;;;;4994757;28;20046;-82
2023/03/28 12:23:00;;;;;;;5.53;2.10;;;9.50;99.90;;;;;;4996520;28;20041;-83
2023/03/28 12:25:53;;;;;;;5.20;2.07;;;9.70;99.90;;;;;;4991772;28;20080;-81
2023/03/28 12:28:55;;;;;;;7.70;2.00;;;9.70;99.90;;;;;;4994435;28;20049;-81
2023/03/28 12:31:42;;;;;;;4.93;2.10;;;9.80;99.90;;;;;;4989462;28;20050;-81
2023/03/28 12:34:27;;;;;;;4.23;1.80;;;9.70;99.90;;;;;;4979719;28;20128;-82
2023/03/28 12:37:21;;;;;;;5.87;1.83;;;9.50;99.90;;;;;;4995131;28;20050;-82
2023/03/28 12:40:07;;;;;;;3.50;1.60;;;9.50;99.90;;;;;;4985167;28;20115;-81
2023/03/28 12:42:44;;;;;;;8.33;5.17;;;9.50;99.90;;;;;;4991304;28;20394;-82
2023/03/28 12:45:30;;;;;;;5.33;1.60;;;9.60;99.90;;;;;;5012593;28;20071;-81
2023/03/28 12:48:50;;;;;;;3.73;1.73;;;9.80;99.90;;;;;;4983494;28;20042;-83
2023/03/28 12:51:30;;;;;;;7.40;2.00;;;10.00;99.90;;;;;;4987341;28;20052;-83
2023/03/28 12:54:16;;;;;;;6.07;1.70;;;10.00;99.90;;;;;;4990643;28;20117;-81
2023/03/28 12:57:03;;;;;;;4.07;1.73;;;10.00;99.90;;;;;;4982017;28;20489;-82
2023/03/28 12:59:37;;;;;;;6.00;2.00;;;10.00;99.90;;;;;;4986103;28;20505;-82
2023/03/28 13:02:30;;;;;;;5.35;2.25;;;10.10;99.90;;;;;;4978262;28;20049;-82
2023/03/28 13:05:17;;;;;;;;;;;10.00;99.90;;;;;;4990317;28;20508;-81
2023/03/28 13:08:20;;;;;;;4.70;2.20;;;10.00;99.90;;;;;;4978544;28;19956;-81
2023/03/28 13:10:52;;;;;;;6.27;1.90;;;10.00;99.90;;;;;;4962304;28;20041;-82
2023/03/28 13:13:37;;;;;;;;;;;10.10;99.90;;;;;;4985736;28;20107;-82
2023/03/28 13:16:13;;;;;;;4.33;2.70;;;10.00;99.90;;;;;;5004719;28;19924;-82
2023/03/28 13:19:10;;;;;;;5.67;2.17;;;9.90;99.90;;;;;;4977744;28;20136;-82
2023/03/28 13:21:48;;;;;;;5.87;2.60;;;9.90;99.90;;;;;;4994824;28;20052;-82
2023/03/28 13:24:38;;;;;;;5.73;2.30;;;9.80;99.90;;;;;;4987180;28;20049;-82
2023/03/28 13:27:31;;;;;;;5.03;2.43;;;9.70;99.90;;;;;;4983359;28;20552;-80
2023/03/28 13:30:18;;;;;;;5.83;2.30;;;9.70;99.90;;;;;;5000109;28;20053;-81
2023/03/28 13:32:56;;;;;;;6.87;2.60;;;9.80;99.90;;;;;;4984688;28;20136;-80
2023/03/28 13:35:44;;;;;;;6.23;2.53;;;9.80;99.90;;;;;;4988907;28;20297;-82
2023/03/28 13:38:28;;;;;;;6.53;2.90;;;9.80;99.90;;;;;;4982859;28;20120;-82
2023/03/28 13:40:55;;;;;;;6.17;3.47;;;9.80;99.90;;;;;;4984878;28;20054;-81
2023/03/28 13:43:43;;;;;;;6.13;4.00;;;9.80;99.90;;;;;;5013321;28;20129;-83